Monte Horebe, Brazil
Current Conditions -  °F | °C
As of 12:00 PM on Saturday 25 Oct 2014 (Local Time) from SBJU Reporting Station
Broken Clouds Broken Clouds  
Wind Chill: 93°   Ceiling: 2100
Heat Index: 95°   Visibility: 6mi
Dew Point: 64°   Wind: 3mph
Humidity: 38%   Direction: 160°SSE
Pressure: 29.97"   Gusts: NA
Location:  7.22°S, 38.59°W
Report Text: SBJU 251500Z 16003KT 9999 BKN021 34/18 Q1015
Loading
Personal Weather Stations






























Interactive Weather Map
Tropical Storm Tracking
New forecast layout! Learn more

10-Day Weather Forecast

Advertisements
Track Severe Weather on mobile